Time;durP1;ratioP1;P1;durP2;ratioP2;P2;SDS_P1;SDS_P2;PMS_P1;PMS_P2;Temp;Humidity;BMP_temperature;BMP_pressure;BME280_temperature;BME280_humidity;BME280_pressure;Samples;Min_cycle;Max_cycle;Signal;HPM_P1;HPM_P2
2023/02/25 00:00:16;;;;;;;80.18;38.38;;;;;;;8.86;100.00;97901.75;6306346;22;20065;-93
2023/02/25 00:02:42;;;;;;;86.03;39.17;;;;;;;8.87;100.00;97897.31;6307737;22;20064;-93
2023/02/25 00:05:08;;;;;;;76.45;35.53;;;;;;;8.95;100.00;97911.19;6306439;22;20023;-94
2023/02/25 00:07:34;;;;;;;75.43;37.35;;;;;;;8.79;100.00;97893.16;6307696;22;20105;-95
2023/02/25 00:10:00;;;;;;;72.28;35.80;;;;;;;8.93;100.00;97902.41;6307201;22;20690;-92
2023/02/25 00:12:27;;;;;;;73.70;35.97;;;;;;;8.94;100.00;97905.03;6307602;22;20102;-92
2023/02/25 00:14:55;;;;;;;76.85;38.72;;;;;;;8.95;100.00;97905.88;6307373;22;20473;-94
2023/02/25 00:17:21;;;;;;;72.35;37.53;;;;;;;8.89;100.00;97908.72;6305649;22;20015;-93
2023/02/25 00:19:47;;;;;;;73.65;36.58;;;;;;;8.74;100.00;97879.19;6332982;22;20456;-93
2023/02/25 00:22:12;;;;;;;78.72;38.03;;;;;;;8.94;100.00;97902.38;6306998;22;20023;-94
2023/02/25 00:24:38;;;;;;;79.03;38.35;;;;;;;8.98;100.00;97897.84;6307634;22;20072;-93
2023/02/25 00:27:04;;;;;;;78.35;36.88;;;;;;;8.90;100.00;97886.63;6307351;22;20015;-93
2023/02/25 00:29:30;;;;;;;78.88;38.70;;;;;;;8.86;100.00;97880.56;6307293;22;20026;-94
2023/02/25 00:31:58;;;;;;;83.25;39.25;;;;;;;8.79;100.00;97864.00;6306328;22;20544;-93
2023/02/25 00:34:23;;;;;;;84.78;40.60;;;;;;;8.86;100.00;97877.91;6307382;22;20023;-93
2023/02/25 00:36:49;;;;;;;85.32;39.22;;;;;;;8.93;100.00;97887.38;6307063;22;20008;-93
2023/02/25 00:39:15;;;;;;;82.88;38.25;;;;;;;8.83;100.00;97860.31;6306951;22;20100;-93
2023/02/25 00:41:41;;;;;;;84.93;40.00;;;;;;;8.93;100.00;97883.84;6307034;22;20020;-92
2023/02/25 00:44:07;;;;;;;89.55;40.35;;;;;;;8.95;100.00;97864.31;6307128;22;20019;-91
2023/02/25 00:46:34;;;;;;;102.05;46.67;;;;;;;9.21;100.00;97871.34;6305344;22;20046;-92
2023/02/25 00:49:01;;;;;;;101.85;46.88;;;;;;;8.98;100.00;97861.56;6306941;22;20383;-94
2023/02/25 00:51:30;;;;;;;94.57;43.53;;;;;;;9.08;100.00;97879.81;6307100;22;20106;-92
2023/02/25 00:53:56;;;;;;;93.97;44.10;;;;;;;9.02;100.00;97864.97;6306658;22;20033;-92
2023/02/25 00:56:23;;;;;;;97.78;46.63;;;;;;;8.86;100.00;97835.47;6306872;22;20054;-94
2023/02/25 00:58:51;;;;;;;93.05;43.10;;;;;;;9.03;100.00;97859.59;6306340;22;20019;-93
2023/02/25 01:01:19;;;;;;;129.55;47.55;;;;;;;8.93;100.00;97841.44;6305144;22;20102;-95
2023/02/25 01:03:45;;;;;;;97.47;42.83;;;;;;;8.82;100.00;97839.16;6306814;22;20404;-94
2023/02/25 01:06:12;;;;;;;88.25;42.38;;;;;;;8.81;100.00;97838.28;6306369;22;20110;-93
2023/02/25 01:08:38;;;;;;;86.60;39.65;;;;;;;8.91;100.00;97851.22;6306410;22;20098;-92
2023/02/25 01:11:10;;;;;;;86.53;41.25;;;;;;;8.84;100.00;97843.47;6306512;22;20030;-93
2023/02/25 01:13:36;;;;;;;84.97;39.75;;;;;;;8.87;100.00;97836.34;6306903;22;20015;-93
2023/02/25 01:16:09;;;;;;;88.30;39.35;;;;;;;8.84;100.00;97832.00;6305331;22;20026;-93
2023/02/25 01:18:35;;;;;;;80.18;38.67;;;;;;;8.82;100.00;97820.59;6306735;22;20011;-92
2023/02/25 01:21:01;;;;;;;81.10;37.55;;;;;;;8.80;100.00;97822.44;6306449;22;20011;-91
2023/02/25 01:23:29;;;;;;;78.80;38.00;;;;;;;8.70;100.00;97805.16;6306310;22;20357;-92
2023/02/25 01:25:54;;;;;;;75.45;36.25;;;;;;;8.81;100.00;97821.53;6306452;22;20390;-92
2023/02/25 01:28:20;;;;;;;82.40;38.63;;;;;;;8.84;100.00;97816.97;6306827;22;20016;-93
2023/02/25 01:30:46;;;;;;;80.97;36.88;;;;;;;8.83;100.00;97806.44;6305435;22;20019;-92
2023/02/25 01:33:12;;;;;;;86.72;39.88;;;;;;;8.76;100.00;97797.84;6307102;22;20073;-91
2023/02/25 01:35:38;;;;;;;91.22;41.63;;;;;;;8.65;100.00;97770.81;6306918;22;20012;-91
2023/02/25 01:38:04;;;;;;;88.10;37.90;;;;;;;8.73;100.00;97767.91;6306095;22;20362;-92
2023/02/25 01:40:31;;;;;;;85.93;38.45;;;;;;;8.73;100.00;97773.22;6306667;22;20019;-93
2023/02/25 01:42:57;;;;;;;92.75;37.83;;;;;;;8.59;100.00;97761.31;6306898;22;20023;-94
2023/02/25 01:45:31;;;;;;;86.28;39.33;;;;;;;8.64;100.00;97775.25;6305739;22;20333;-92
2023/02/25 01:48:04;;;;;;;65.55;32.15;;;;;;;8.51;100.00;97768.66;6306274;22;20015;-92
2023/02/25 01:50:36;;;;;;;76.50;37.80;;;;;;;8.28;100.00;97760.63;6306894;22;20015;-93
2023/02/25 01:53:03;;;;;;;70.95;32.58;;;;;;;8.23;100.00;97758.97;6306546;22;20460;-91
2023/02/25 01:55:31;;;;;;;68.20;31.38;;;;;;;8.11;100.00;97747.94;6306700;22;20045;-92
2023/02/25 01:57:58;;;;;;;73.30;33.60;;;;;;;7.89;100.00;97758.38;6332836;22;20065;-93
2023/02/25 02:00:27;;;;;;;74.35;34.22;;;;;;;7.84;100.00;97753.22;6305245;22;20023;-90
2023/02/25 02:02:53;;;;;;;75.60;34.15;;;;;;;7.76;100.00;97758.78;6306432;22;20027;-92
2023/02/25 02:05:22;;;;;;;78.22;35.70;;;;;;;7.69;100.00;97737.84;6306476;22;20019;-92
2023/02/25 02:07:48;;;;;;;76.10;36.23;;;;;;;7.74;100.00;97749.13;6306603;22;20022;-93
2023/02/25 02:10:14;;;;;;;83.30;38.10;;;;;;;7.61;100.00;97724.84;6306214;22;20241;-93
2023/02/25 02:12:44;;;;;;;79.70;37.40;;;;;;;7.76;100.00;97744.66;6306846;22;20336;-93
2023/02/25 02:15:13;;;;;;;83.30;37.03;;;;;;;7.70;100.00;97731.63;6305097;22;20030;-94
2023/02/25 02:17:43;;;;;;;89.35;37.80;;;;;;;7.80;100.00;97751.59;6332402;22;20111;-93
2023/02/25 02:20:19;;;;;;;86.35;37.80;;;;;;;7.82;100.00;97763.84;6305571;22;20026;-92
2023/02/25 02:22:54;;;;;;;84.28;37.85;;;;;;;7.76;100.00;97736.72;6306486;22;20019;-92
2023/02/25 02:25:56;;;;;;;81.47;38.08;;;;;;;7.97;100.00;97749.25;6306219;22;20042;-90
2023/02/25 02:29:04;;;;;;;77.25;36.38;;;;;;;8.13;100.00;97751.41;6305102;22;20017;-92
2023/02/25 02:31:46;;;;;;;87.22;37.88;;;;;;;8.08;100.00;97734.81;6304693;22;20349;-93
2023/02/25 02:34:25;;;;;;;78.25;35.53;;;;;;;8.21;100.00;97742.28;6306403;22;20023;-91
2023/02/25 02:37:03;;;;;;;80.63;35.87;;;;;;;8.29;100.00;97730.56;6306227;22;20345;-93
2023/02/25 02:39:44;;;;;;;69.65;33.65;;;;;;;8.29;100.00;97726.13;6306188;22;20106;-93
2023/02/25 02:42:17;;;;;;;76.60;34.45;;;;;;;8.33;100.00;97733.06;6306755;22;20501;-93
2023/02/25 02:44:52;;;;;;;74.03;35.15;;;;;;;8.38;100.00;97725.81;6306217;22;20069;-91
2023/02/25 02:47:24;;;;;;;78.03;35.90;;;;;;;8.33;100.00;97718.97;6305253;22;20069;-94
2023/02/25 02:49:54;;;;;;;78.07;35.17;;;;;;;8.43;100.00;97738.91;6306235;22;20352;-95
2023/02/25 02:52:25;;;;;;;72.90;33.58;;;;;;;8.42;100.00;97721.31;6306376;22;20076;-90
2023/02/25 02:54:58;;;;;;;70.70;32.45;;;;;;;8.53;100.00;97731.53;6306011;22;20105;-94
2023/02/25 02:57:27;;;;;;;72.75;34.17;;;;;;;8.52;100.00;97727.13;6306312;22;20019;-92
2023/02/25 02:59:57;;;;;;;74.43;33.08;;;;;;;8.53;100.00;97718.28;6308040;22;20019;-92
2023/02/25 03:02:29;;;;;;;75.03;35.28;;;;;;;8.52;100.00;97716.53;6306951;22;20057;-92
2023/02/25 03:05:01;;;;;;;78.50;35.65;;;;;;;8.57;100.00;97719.91;6308558;22;20105;-93
2023/02/25 03:07:28;;;;;;;73.85;33.67;;;;;;;8.55;100.00;97701.41;6308295;22;20046;-91
2023/02/25 03:09:58;;;;;;;78.50;35.17;;;;;;;8.62;100.00;97721.44;6308464;22;20019;-91
2023/02/25 03:12:24;;;;;;;88.55;38.10;;;;;;;8.53;100.00;97705.03;6308247;22;20445;-93
2023/02/25 03:14:49;;;;;;;82.25;36.83;;;;;;;8.60;100.00;97715.34;6308281;22;20465;-92
2023/02/25 03:17:20;;;;;;;82.85;36.15;;;;;;;8.70;100.00;97726.50;6306930;22;20022;-92
2023/02/25 03:19:55;;;;;;;72.57;34.88;;;;;;;8.64;100.00;97702.84;6308253;22;20445;-93
2023/02/25 03:22:26;;;;;;;80.07;34.35;;;;;;;8.62;100.00;97702.91;6307878;22;20050;-93
2023/02/25 03:24:58;;;;;;;77.68;34.03;;;;;;;8.64;100.00;97698.41;6308322;22;20023;-93
2023/02/25 03:27:27;;;;;;;77.50;36.55;;;;;;;8.77;100.00;97724.47;6308771;22;20076;-93
2023/02/25 03:29:59;;;;;;;72.80;35.47;;;;;;;8.60;100.00;97687.97;6308084;22;20077;-93
2023/02/25 03:32:28;;;;;;;76.07;32.80;;;;;;;8.69;100.00;97706.19;6307229;22;20015;-94
2023/02/25 03:34:58;;;;;;;66.72;31.77;;;;;;;8.76;100.00;97704.19;6308345;22;20102;-92
2023/02/25 03:37:30;;;;;;;72.47;31.50;;;;;;;8.82;100.00;97715.41;6308245;22;20073;-92
2023/02/25 03:40:10;;;;;;;69.38;30.95;;;;;;;8.81;100.00;97718.16;6308349;22;20027;-91
2023/02/25 03:42:40;;;;;;;66.20;31.33;;;;;;;8.67;100.00;97693.91;6308350;22;20076;-92
2023/02/25 03:45:10;;;;;;;64.10;29.80;;;;;;;8.82;100.00;97715.41;6306619;22;20110;-92
2023/02/25 03:47:38;;;;;;;67.22;30.17;;;;;;;8.78;100.00;97713.84;6308229;22;20076;-93
2023/02/25 03:50:11;;;;;;;64.05;31.63;;;;;;;8.77;100.00;97712.09;6308558;22;20019;-92
2023/02/25 03:52:38;;;;;;;68.95;31.25;;;;;;;8.79;100.00;97710.25;6309405;22;20069;-93
2023/02/25 03:55:08;;;;;;;62.75;30.00;;;;;;;8.83;100.00;97717.16;6308213;22;20034;-93
2023/02/25 03:57:36;;;;;;;67.30;31.20;;;;;;;8.83;100.00;97718.97;6307602;22;20019;-92
2023/02/25 04:00:14;;;;;;;58.20;29.03;;;;;;;8.80;100.00;97701.38;6306519;22;20023;-92
2023/02/25 04:02:41;;;;;;;58.97;30.02;;;;;;;8.82;100.00;97709.25;6308079;22;20019;-93
2023/02/25 04:05:09;;;;;;;57.53;27.30;;;;;;;8.79;100.00;97706.72;6307937;22;20023;-92
2023/02/25 04:07:35;;;;;;;57.60;28.25;;;;;;;8.86;100.00;97715.31;6307807;22;20038;-93
2023/02/25 04:10:02;;;;;;;59.50;27.98;;;;;;;8.91;100.00;97721.31;6307722;22;20019;-92
2023/02/25 04:12:28;;;;;;;57.53;27.73;;;;;;;8.95;100.00;97736.19;6307892;22;20109;-91
2023/02/25 04:14:54;;;;;;;53.42;25.77;;;;;;;8.91;100.00;97735.41;6307630;22;20047;-92
2023/02/25 04:17:19;;;;;;;54.22;26.30;;;;;;;8.79;100.00;97712.88;6306722;22;20394;-94
2023/02/25 04:19:45;;;;;;;58.78;27.20;;;;;;;8.88;100.00;97724.09;6308072;22;20019;-91
2023/02/25 04:22:12;;;;;;;54.08;27.15;;;;;;;8.93;100.00;97732.72;6307731;22;20023;-94
2023/02/25 04:24:38;;;;;;;53.85;26.20;;;;;;;8.79;100.00;97704.09;6307622;22;20058;-94
2023/02/25 04:27:04;;;;;;;53.65;26.50;;;;;;;8.80;100.00;97701.38;6307886;22;20022;-93
2023/02/25 04:29:30;;;;;;;50.35;26.20;;;;;;;8.81;100.00;97711.06;6307380;22;20026;-92
2023/02/25 04:31:56;;;;;;;52.67;26.23;;;;;;;8.84;100.00;97723.31;6306619;22;20196;-92
2023/02/25 04:34:22;;;;;;;54.60;25.88;;;;;;;8.75;100.00;97705.13;6307793;22;20019;-93
2023/02/25 04:36:48;;;;;;;49.15;26.05;;;;;;;8.87;100.00;97722.34;6307688;22;20023;-92
2023/02/25 04:39:17;;;;;;;52.28;25.60;;;;;;;8.75;100.00;97708.63;6307740;22;20042;-92
2023/02/25 04:41:43;;;;;;;53.90;26.08;;;;;;;8.87;100.00;97719.69;6307314;22;20023;-93
2023/02/25 04:44:09;;;;;;;52.03;26.55;;;;;;;8.87;100.00;97727.63;6307563;22;20049;-94
2023/02/25 04:46:37;;;;;;;49.25;24.88;;;;;;;8.74;100.00;97712.22;6306382;22;20015;-93
2023/02/25 04:49:04;;;;;;;53.22;26.77;;;;;;;8.72;100.00;97713.16;6307986;22;20038;-93
2023/02/25 04:51:30;;;;;;;52.75;25.75;;;;;;;8.72;100.00;97708.75;6307473;22;20020;-92
2023/02/25 04:53:56;;;;;;;50.85;26.25;;;;;;;8.81;100.00;97715.50;6307001;22;20064;-93
2023/02/25 04:56:23;;;;;;;51.05;25.90;;;;;;;8.74;100.00;97698.97;6307253;22;20022;-92
2023/02/25 04:58:49;;;;;;;53.55;26.67;;;;;;;8.83;100.00;97700.41;6307351;22;20019;-93
2023/02/25 05:01:15;;;;;;;45.58;25.90;;;;;;;8.73;100.00;97681.31;6306342;22;20043;-92
2023/02/25 05:03:41;;;;;;;52.38;25.13;;;;;;;8.86;100.00;97717.97;6307383;22;20072;-93
2023/02/25 05:06:07;;;;;;;48.85;24.27;;;;;;;8.71;100.00;97691.09;6307773;22;20054;-93
2023/02/25 05:08:34;;;;;;;50.13;25.27;;;;;;;8.77;100.00;97700.63;6307073;22;20023;-93
2023/02/25 05:11:01;;;;;;;48.65;23.88;;;;;;;8.80;100.00;97706.69;6307320;22;20429;-93
2023/02/25 05:13:28;;;;;;;45.47;23.67;;;;;;;8.91;100.00;97703.59;6307144;22;20034;-93
2023/02/25 05:16:03;;;;;;;44.83;22.65;;;;;;;8.90;100.00;97706.34;6306354;22;20016;-93
2023/02/25 05:18:29;;;;;;;48.25;24.55;;;;;;;8.86;100.00;97699.41;6307047;22;20011;-93
2023/02/25 05:20:54;;;;;;;44.90;23.23;;;;;;;8.84;100.00;97697.66;6306503;22;20046;-92
2023/02/25 05:23:20;;;;;;;41.83;22.33;;;;;;;8.79;100.00;97693.47;6307267;22;20160;-93
2023/02/25 05:25:46;;;;;;;49.28;24.25;;;;;;;8.81;100.00;97689.00;6307069;22;20703;-93
2023/02/25 05:28:12;;;;;;;47.45;23.27;;;;;;;8.74;100.00;97669.81;6307027;22;20160;-92
2023/02/25 05:30:39;;;;;;;43.67;22.17;;;;;;;8.67;100.00;97676.22;6306173;22;20157;-92
2023/02/25 05:33:05;;;;;;;49.80;22.58;;;;;;;8.70;100.00;97678.78;6307219;22;20046;-92
2023/02/25 05:35:32;;;;;;;42.75;23.55;;;;;;;8.63;100.00;97677.25;6306751;22;20441;-92
2023/02/25 05:37:58;;;;;;;48.85;24.77;;;;;;;8.67;100.00;97667.41;6306902;22;20020;-94
2023/02/25 05:40:24;;;;;;;44.13;22.05;;;;;;;8.63;100.00;97669.31;6307059;22;20041;-92
2023/02/25 05:42:50;;;;;;;43.20;22.17;;;;;;;8.71;100.00;97663.75;6306889;22;20019;-93
2023/02/25 05:45:16;;;;;;;42.00;22.10;;;;;;;8.71;100.00;97654.00;6305581;22;20011;-93
2023/02/25 05:47:44;;;;;;;41.22;21.02;;;;;;;8.64;100.00;97629.50;6307201;22;20015;-92
2023/02/25 05:50:13;;;;;;;39.40;21.60;;;;;;;8.70;100.00;97652.28;6307017;22;20023;-93
2023/02/25 05:52:39;;;;;;;40.47;22.13;;;;;;;8.64;100.00;97642.75;6307139;22;20046;-93
2023/02/25 05:55:08;;;;;;;37.47;20.48;;;;;;;8.70;100.00;97646.97;6306509;22;20023;-90
2023/02/25 05:57:34;;;;;;;40.20;21.77;;;;;;;8.70;100.00;97639.03;6307436;22;20019;-92
2023/02/25 06:00:00;;;;;;;35.03;19.38;;;;;;;8.60;100.00;97632.34;6308208;22;20027;-91
2023/02/25 06:02:26;;;;;;;36.60;19.15;;;;;;;8.62;100.00;97638.44;6306068;22;20019;-92
2023/02/25 06:04:54;;;;;;;39.00;19.77;;;;;;;8.72;100.00;97649.53;6307487;22;20072;-92
2023/02/25 06:07:19;;;;;;;36.45;19.20;;;;;;;8.71;100.00;97642.53;6307375;22;20011;-91
2023/02/25 06:09:45;;;;;;;35.75;19.27;;;;;;;8.69;100.00;97642.59;6307427;22;20069;-93
2023/02/25 06:12:12;;;;;;;32.47;18.27;;;;;;;8.79;100.00;97646.63;6307682;22;20498;-92
2023/02/25 06:14:38;;;;;;;36.13;18.58;;;;;;;8.80;100.00;97637.75;6307155;22;20076;-94
2023/02/25 06:17:03;;;;;;;43.42;21.15;;;;;;;8.74;100.00;97618.56;6307573;22;20007;-94
2023/02/25 06:19:29;;;;;;;37.10;19.17;;;;;;;8.73;100.00;97630.94;6308259;22;20403;-95
2023/02/25 06:21:57;;;;;;;39.60;19.10;;;;;;;8.77;100.00;97635.22;6307090;22;20029;-93
2023/02/25 06:24:23;;;;;;;35.83;19.27;;;;;;;8.76;100.00;97648.50;6307577;22;20402;-93
2023/02/25 06:26:49;;;;;;;35.95;19.75;;;;;;;8.66;100.00;97618.84;6307483;22;20110;-92
2023/02/25 06:29:15;;;;;;;40.83;19.15;;;;;;;8.66;100.00;97624.16;6306922;22;20081;-92
2023/02/25 06:31:42;;;;;;;37.50;18.45;;;;;;;8.80;100.00;97653.66;6305493;22;20027;-93
2023/02/25 06:34:08;;;;;;;34.83;19.23;;;;;;;8.78;100.00;97638.72;6307102;22;20023;-92
2023/02/25 06:36:33;;;;;;;42.60;19.85;;;;;;;8.68;100.00;97619.66;6307588;22;20008;-93
2023/02/25 06:39:01;;;;;;;36.45;18.80;;;;;;;8.88;100.00;97655.16;6307750;22;20053;-93
2023/02/25 06:41:27;;;;;;;41.08;19.05;;;;;;;8.94;100.00;97646.97;6307854;22;20042;-94
2023/02/25 06:43:53;;;;;;;38.85;18.45;;;;;;;8.93;100.00;97624.88;6307437;22;20015;-92
2023/02/25 06:46:20;;;;;;;37.80;19.90;;;;;;;9.00;100.00;97641.41;6307631;22;20019;-92
2023/02/25 06:48:46;;;;;;;37.70;18.92;;;;;;;8.93;100.00;97631.97;6307923;22;20015;-92
2023/02/25 06:51:13;;;;;;;37.50;18.70;;;;;;;8.93;100.00;97637.28;6308024;22;20104;-92
2023/02/25 06:53:40;;;;;;;35.90;18.38;;;;;;;8.96;100.00;97645.13;6307820;22;20027;-94
2023/02/25 06:56:10;;;;;;;36.28;18.58;;;;;;;8.92;100.00;97633.75;6308193;22;20430;-93
2023/02/25 06:58:36;;;;;;;40.92;19.52;;;;;;;8.89;100.00;97622.41;6307809;22;20018;-91
2023/02/25 07:01:04;;;;;;;34.35;18.40;;;;;;;8.89;100.00;97604.72;6306910;22;20024;-94
2023/02/25 07:03:30;;;;;;;38.73;19.17;;;;;;;8.97;100.00;97629.13;6307414;22;20327;-92
2023/02/25 07:05:56;;;;;;;35.00;19.27;;;;;;;8.98;100.00;97624.72;6307147;22;20019;-95
2023/02/25 07:08:22;;;;;;;40.40;19.15;;;;;;;9.13;100.00;97650.63;6309415;22;20019;-92
2023/02/25 07:10:48;;;;;;;36.25;19.13;;;;;;;9.12;100.00;97643.59;6310807;22;20023;-92
2023/02/25 07:13:15;;;;;;;36.13;19.67;;;;;;;9.11;100.00;97641.00;6307394;22;20022;-94
2023/02/25 07:15:41;;;;;;;38.13;18.98;;;;;;;8.99;100.00;97631.75;6308214;22;20099;-93
2023/02/25 07:18:07;;;;;;;35.67;18.13;;;;;;;9.09;100.00;97625.16;6307373;22;20038;-94
2023/02/25 07:20:33;;;;;;;37.22;17.33;;;;;;;9.25;100.00;97633.34;6307245;22;20019;-93
2023/02/25 07:23:01;;;;;;;34.97;17.77;;;;;;;9.39;100.00;97630.13;6307375;22;20015;-94
2023/02/25 07:25:27;;;;;;;34.15;17.77;;;;;;;9.39;100.00;97619.53;6307113;22;20114;-95
2023/02/25 07:27:53;;;;;;;32.60;17.30;;;;;;;9.51;100.00;97634.97;6307218;22;20053;-93
2023/02/25 07:30:20;;;;;;;32.00;16.85;;;;;;;9.43;100.00;97616.72;6307032;22;20096;-93
2023/02/25 07:32:46;;;;;;;32.72;16.58;;;;;;;9.44;100.00;97594.53;6307057;22;20092;-92
2023/02/25 07:35:12;;;;;;;30.52;17.45;;;;;;;9.48;100.00;97584.69;6306928;22;20019;-92
2023/02/25 07:37:38;;;;;;;37.10;16.73;;;;;;;9.38;100.00;97584.19;6307181;22;20459;-93
2023/02/25 07:40:11;;;;;;;32.00;16.92;;;;;;;9.50;100.00;97612.00;6306481;22;20029;-93
2023/02/25 07:42:38;;;;;;;32.53;17.52;;;;;;;9.46;100.00;97599.78;6306800;22;20026;-93
2023/02/25 07:45:06;;;;;;;30.88;16.73;;;;;;;9.52;100.00;97614.59;6308138;22;20026;-94
2023/02/25 07:47:33;;;;;;;35.67;17.25;;;;;;;9.53;100.00;97605.72;6308875;22;20064;-94
2023/02/25 07:49:59;;;;;;;33.80;14.75;;;;;;;9.72;100.00;97595.19;6309090;22;20016;-93
2023/02/25 07:52:24;;;;;;;26.10;13.60;;;;;;;9.73;100.00;97583.63;6309027;22;20019;-92
2023/02/25 07:54:50;;;;;;;30.85;15.20;;;;;;;9.90;100.00;97593.53;6308631;22;20414;-93
2023/02/25 07:57:16;;;;;;;30.77;15.25;;;;;;;9.87;100.00;97568.84;6308579;22;20429;-94
2023/02/25 07:59:42;;;;;;;29.70;16.00;;;;;;;10.00;100.00;97573.63;6308804;22;20015;-95
2023/02/25 08:02:10;;;;;;;31.98;15.60;;;;;;;10.14;100.00;97575.66;6308800;22;20023;-95
2023/02/25 08:04:37;;;;;;;50.40;22.73;;;;;;;10.21;100.00;97572.69;6308892;22;20019;-92
2023/02/25 08:07:03;;;;;;;45.03;23.90;;;;;;;10.16;100.00;97565.81;6310375;22;20468;-94
2023/02/25 08:09:29;;;;;;;42.88;23.73;;;;;;;10.19;100.00;97571.88;6314021;22;20023;-95
2023/02/25 08:11:55;;;;;;;40.33;22.85;;;;;;;10.32;100.00;97588.13;6314111;22;20030;-93
2023/02/25 08:14:21;;;;;;;47.85;24.65;;;;;;;10.26;100.00;97583.94;6313602;22;20019;-95
2023/02/25 08:16:47;;;;;;;43.65;22.80;;;;;;;10.18;100.00;97602.00;6311887;22;20341;-94
2023/02/25 08:19:13;;;;;;;40.78;19.33;;;;;;;10.03;100.00;97582.28;6311720;22;20011;-93
2023/02/25 08:21:40;;;;;;;43.35;21.80;;;;;;;10.03;100.00;97563.72;6313688;22;20011;-93
2023/02/25 08:24:07;;;;;;;36.60;19.50;;;;;;;10.12;100.00;97556.25;6314172;22;20023;-93
2023/02/25 08:26:33;;;;;;;34.65;18.90;;;;;;;10.31;100.00;97566.97;6313760;22;20019;-92
2023/02/25 08:28:59;;;;;;;36.75;18.70;;;;;;;10.19;100.00;97547.09;6312204;22;20038;-93
2023/02/25 08:31:25;;;;;;;36.47;17.88;;;;;;;10.28;100.00;97547.53;6311441;22;20012;-93
2023/02/25 08:33:52;;;;;;;30.88;15.80;;;;;;;10.56;100.00;97548.97;6311843;22;20030;-93
2023/02/25 08:36:20;;;;;;;29.83;16.85;;;;;;;10.55;100.00;97523.31;6310386;22;20019;-94
2023/02/25 08:38:49;;;;;;;34.80;16.83;;;;;;;10.75;100.00;97540.13;6308473;22;20330;-93
2023/02/25 08:41:14;;;;;;;38.05;19.02;;;;;;;10.81;100.00;97538.03;6308702;22;20042;-93
2023/02/25 08:43:40;;;;;;;64.75;35.38;;;;;;;10.97;100.00;97562.06;6308095;22;20350;-93
2023/02/25 08:46:07;;;;;;;64.80;34.88;;;;;;;10.84;100.00;97548.53;6308273;22;20349;-93
2023/02/25 08:48:33;;;;;;;63.33;34.08;;;;;;;10.90;100.00;97550.88;6308252;22;20022;-94
2023/02/25 08:51:01;;;;;;;65.82;34.78;;;;;;;10.87;100.00;97534.22;6309021;22;20037;-95
2023/02/25 08:53:27;;;;;;;61.78;33.30;;;;;;;10.93;100.00;97527.72;6308226;22;20053;-94
2023/02/25 08:55:54;;;;;;;55.58;32.25;;;;;;;10.77;100.00;97523.16;6308775;22;20105;-94
2023/02/25 08:58:20;;;;;;;55.65;29.42;;;;;;;10.84;100.00;97531.69;6308225;22;20068;-95
2023/02/25 09:00:48;;;;;;;55.22;30.80;;;;;;;10.80;100.00;97512.38;6308050;22;20453;-94
2023/02/25 09:03:14;;;;;;;57.58;29.48;;;;;;;11.02;100.00;97544.13;6308200;22;20047;-95
2023/02/25 09:05:40;;;;;;;63.72;33.33;;;;;;;10.99;100.00;97522.13;6334165;22;20019;-94
2023/02/25 09:08:06;;;;;;;50.33;28.67;;;;;;;11.14;100.00;97542.66;6307963;22;20437;-93
2023/02/25 09:10:33;;;;;;;51.47;26.88;;;;;;;11.08;100.00;97532.28;6307778;22;20023;-94
2023/02/25 09:13:00;;;;;;;50.45;27.05;;;;;;;11.20;100.00;97537.03;6307694;22;20027;-94
2023/02/25 09:15:26;;;;;;;45.72;26.83;;;;;;;11.24;100.00;97533.28;6307139;22;20021;-93
2023/02/25 09:17:52;;;;;;;51.03;27.70;;;;;;;11.19;100.00;97540.63;6307494;22;20102;-93
2023/02/25 09:20:18;;;;;;;56.55;28.48;;;;;;;11.24;100.00;97551.91;6308028;22;20030;-93
2023/02/25 09:22:43;;;;;;;49.13;27.73;;;;;;;11.22;100.00;97540.47;6307669;22;20046;-94
2023/02/25 09:25:09;;;;;;;55.85;30.45;;;;;;;11.41;100.00;97550.22;6307655;22;20046;-94
2023/02/25 09:27:35;;;;;;;53.38;26.88;;;;;;;11.34;100.00;97528.34;6307283;22;20457;-92
2023/02/25 09:30:03;;;;;;;50.80;27.77;;;;;;;11.49;100.00;97534.69;6306943;22;20015;-92
2023/02/25 09:32:30;;;;;;;55.53;28.67;;;;;;;11.57;100.00;97532.53;6307451;22;20019;-93
2023/02/25 09:34:55;;;;;;;45.58;26.73;;;;;;;11.62;100.00;97530.47;6308981;22;20450;-93
2023/02/25 09:37:22;;;;;;;49.13;26.25;;;;;;;11.62;100.00;97517.16;6307603;22;20019;-93
2023/02/25 09:39:48;;;;;;;47.95;25.55;;;;;;;11.65;99.41;97525.00;6307581;22;20023;-92
2023/02/25 09:42:18;;;;;;;47.58;26.27;;;;;;;11.72;100.00;97517.56;6307473;22;20106;-93
2023/02/25 09:44:47;;;;;;;46.67;23.42;;;;;;;11.68;97.63;97505.34;6307991;22;20026;-94
2023/02/25 09:47:18;;;;;;;47.30;26.52;;;;;;;11.80;99.26;97504.72;6306418;22;20019;-93
2023/02/25 09:49:49;;;;;;;50.42;27.35;;;;;;;12.08;100.00;97528.13;6307049;22;20515;-93
2023/02/25 09:52:21;;;;;;;55.90;30.65;;;;;;;12.07;97.47;97525.53;6307022;22;20015;-92
2023/02/25 09:54:52;;;;;;;53.63;31.20;;;;;;;12.07;98.41;97520.22;6307324;22;20023;-93
2023/02/25 09:57:22;;;;;;;50.53;28.65;;;;;;;12.13;98.68;97518.06;6307056;22;20030;-93
2023/02/25 09:59:50;;;;;;;51.67;27.80;;;;;;;12.01;97.76;97507.22;6307307;22;20114;-94
2023/02/25 10:02:26;;;;;;;50.33;28.33;;;;;;;12.06;97.12;97516.69;6305988;22;20019;-94
2023/02/25 10:05:05;;;;;;;48.80;28.70;;;;;;;12.13;97.37;97515.41;6307328;22;20026;-94
2023/02/25 10:07:35;;;;;;;48.67;28.50;;;;;;;12.28;97.06;97521.72;6332783;22;20433;-94
2023/02/25 10:10:05;;;;;;;50.35;27.75;;;;;;;12.29;96.77;97525.25;6307229;22;20030;-93
2023/02/25 10:12:38;;;;;;;44.53;25.92;;;;;;;12.38;97.22;97526.56;6306858;22;20352;-93
2023/02/25 10:15:21;;;;;;;51.33;27.05;;;;;;;12.34;96.03;97512.56;6306264;22;20019;-93
2023/02/25 10:18:01;;;;;;;46.10;25.50;;;;;;;12.44;96.12;97532.41;6307679;22;20016;-93
2023/02/25 10:20:40;;;;;;;48.42;27.92;;;;;;;12.46;97.30;97525.19;6308327;22;20023;-94
2023/02/25 10:23:14;;;;;;;53.67;30.10;;;;;;;12.48;97.43;97530.44;6308536;22;20433;-92
2023/02/25 10:25:48;;;;;;;53.15;29.17;;;;;;;12.38;96.78;97506.09;6307124;22;20049;-93
2023/02/25 10:28:17;;;;;;;53.03;28.55;;;;;;;12.38;97.07;97511.41;6306480;22;20023;-92
2023/02/25 10:30:49;;;;;;;52.50;27.70;;;;;;;12.40;96.76;97517.53;6306139;22;20102;-93
2023/02/25 10:33:20;;;;;;;48.35;26.10;;;;;;;12.21;95.56;97516.78;6306851;22;20026;-94
2023/02/25 10:35:51;;;;;;;50.33;26.80;;;;;;;12.12;95.45;97515.47;6307034;22;20011;-92
2023/02/25 10:38:17;;;;;;;50.42;26.67;;;;;;;12.19;96.26;97521.34;6307120;22;20066;-92
2023/02/25 10:40:43;;;;;;;47.45;25.90;;;;;;;12.14;95.36;97524.25;6306883;22;20026;-92
2023/02/25 10:43:18;;;;;;;47.25;25.35;;;;;;;12.16;96.90;97521.53;6307932;22;20031;-93
2023/02/25 10:45:48;;;;;;;47.78;27.58;;;;;;;11.97;99.47;97519.84;6308218;22;20019;-92
2023/02/25 10:48:20;;;;;;;46.20;24.67;;;;;;;11.92;98.41;97506.75;6307778;22;20333;-93
2023/02/25 10:51:01;;;;;;;49.70;22.80;;;;;;;12.18;99.32;97508.97;6307109;22;20025;-93
2023/02/25 10:53:27;;;;;;;52.35;26.35;;;;;;;12.18;98.88;97474.34;6306831;22;20053;-93
2023/02/25 10:55:54;;;;;;;45.22;23.63;;;;;;;12.34;96.59;97483.22;6307593;22;20023;-93
2023/02/25 10:58:33;;;;;;;47.83;25.42;;;;;;;12.38;96.39;97473.25;6310018;22;20039;-93
2023/02/25 11:01:03;;;;;;;46.60;24.15;;;;;;;12.61;98.49;97479.97;6308459;22;20460;-93
2023/02/25 11:03:37;;;;;;;39.67;23.83;;;;;;;12.69;97.32;97475.06;6307746;22;20015;-94
2023/02/25 11:06:12;;;;;;;39.83;22.33;;;;;;;12.73;97.10;97476.63;6309190;22;20051;-93
2023/02/25 11:08:39;;;;;;;43.50;22.83;;;;;;;12.77;96.27;97483.47;6307230;22;20049;-94
2023/02/25 11:11:14;;;;;;;47.03;22.50;;;;;;;12.82;95.93;97484.09;6306894;22;20027;-94
2023/02/25 11:13:40;;;;;;;40.33;21.30;;;;;;;12.84;97.32;97481.34;6307002;22;20020;-94
2023/02/25 11:16:08;;;;;;;36.20;22.17;;;;;;;12.80;95.46;97453.97;6306058;22;20023;-94
2023/02/25 11:18:37;;;;;;;37.00;20.95;;;;;;;13.05;95.03;97457.91;6306476;22;20345;-92
2023/02/25 11:21:06;;;;;;;37.38;20.70;;;;;;;13.18;94.27;97450.88;6308366;22;20330;-92